Time;durP1;ratioP1;P1;durP2;ratioP2;P2;SDS_P1;SDS_P2;PMS_P1;PMS_P2;Temp;Humidity;BMP_temperature;BMP_pressure;BME280_temperature;BME280_humidity;BME280_pressure;Samples;Min_cycle;Max_cycle;Signal;HPM_P1;HPM_P2
2022/10/31 00:00:44;;;;;;;;;;;11.90;99.90;;;;;;5066634;28;21248;-70
2022/10/31 00:03:09;;;;;;;;;;;11.90;99.90;;;;;;5095448;27;19920;-70
2022/10/31 00:05:34;;;;;;;;;;;11.90;99.90;;;;;;5071972;28;20354;-70
2022/10/31 00:08:00;;;;;;;;;;;11.80;99.90;;;;;;5074394;28;19924;-70
2022/10/31 00:10:25;;;;;;;;;;;11.80;99.90;;;;;;5066763;28;20012;-70
2022/10/31 00:12:51;;;;;;;;;;;11.70;99.90;;;;;;5097515;27;19935;-70
2022/10/31 00:15:16;;;;;;;;;;;11.80;99.90;;;;;;5066505;28;19928;-70
2022/10/31 00:17:42;;;;;;;;;;;11.80;99.90;;;;;;5062574;28;19969;-70
2022/10/31 00:20:08;;;;;;;;;;;11.70;99.90;;;;;;5066813;28;20015;-70
2022/10/31 00:22:33;;;;;;;;;;;11.80;99.90;;;;;;5077705;28;19921;-70
2022/10/31 00:24:59;;;;;;;;;;;11.70;99.90;;;;;;5073921;28;19986;-69
2022/10/31 00:27:24;;;;;;;;;;;11.70;99.90;;;;;;5104661;27;19928;-69
2022/10/31 00:29:49;;;;;;;;;;;11.60;99.90;;;;;;5070340;28;19936;-69
2022/10/31 00:32:15;;;;;;;;;;;11.60;99.90;;;;;;5074854;28;19999;-69
2022/10/31 00:34:40;;;;;;;;;;;11.60;99.90;;;;;;5050229;28;19920;-69
2022/10/31 00:37:06;;;;;;;;;;;11.60;99.90;;;;;;5059183;28;20401;-69
2022/10/31 00:39:31;;;;;;;;;;;11.60;99.90;;;;;;5068983;28;19924;-70
2022/10/31 00:41:57;;;;;;;;;;;11.50;99.90;;;;;;5072627;28;20152;-70
2022/10/31 00:44:22;;;;;;;;;;;11.50;99.90;;;;;;5053785;28;20024;-70
2022/10/31 00:46:48;;;;;;;;;;;11.40;99.90;;;;;;5073802;28;19923;-69
2022/10/31 00:49:13;;;;;;;;;;;11.40;99.90;;;;;;5071744;28;19931;-70
2022/10/31 00:51:39;;;;;;;;;;;11.40;99.90;;;;;;5072600;28;20059;-70
2022/10/31 00:54:04;;;;;;;;;;;11.40;99.90;;;;;;5081325;28;19920;-70
2022/10/31 00:56:30;;;;;;;;;;;11.40;99.90;;;;;;5071374;28;19924;-70
2022/10/31 00:58:55;;;;;;;;;;;11.40;99.90;;;;;;5072041;28;20282;-70
2022/10/31 01:01:21;;;;;;;;;;;11.60;99.90;;;;;;5076108;28;20005;-70
2022/10/31 01:03:46;;;;;;;;;;;11.50;99.90;;;;;;5074428;28;20386;-70
2022/10/31 01:06:12;;;;;;;;;;;11.50;99.90;;;;;;5072625;28;19920;-70
2022/10/31 01:08:38;;;;;;;;;;;11.50;99.90;;;;;;5072916;28;19927;-70
2022/10/31 01:11:09;;;;;;;;;;;11.50;99.90;;;;;;5069577;28;21244;-70
2022/10/31 01:13:35;;;;;;;;;;;11.50;99.90;;;;;;5073340;28;19920;-70
2022/10/31 01:16:01;;;;;;;;;;;11.50;99.90;;;;;;5077284;28;19977;-70
2022/10/31 01:18:27;;;;;;;;;;;11.40;99.90;;;;;;5068907;28;19929;-70
2022/10/31 01:21:01;;;;;;;;;;;11.40;99.90;;;;;;5069037;28;19928;-70
2022/10/31 01:23:27;;;;;;;;;;;11.40;99.90;;;;;;5099435;27;19925;-70
2022/10/31 01:26:04;;;;;;;;;;;11.40;99.90;;;;;;5063582;28;20431;-70
2022/10/31 01:28:29;;;;;;;;;;;11.20;99.90;;;;;;5089476;28;20415;-70
2022/10/31 01:30:55;;;;;;;;;;;11.30;99.90;;;;;;5072356;28;19920;-70
2022/10/31 01:33:20;;;;;;;;;;;11.20;99.90;;;;;;5075929;28;21666;-70
2022/10/31 01:35:46;;;;;;;;;;;11.20;99.90;;;;;;5071228;28;20415;-70
2022/10/31 01:38:11;;;;;;;;;;;11.10;99.90;;;;;;5073950;28;20314;-70
2022/10/31 01:40:37;;;;;;;;;;;11.00;99.90;;;;;;5075741;28;20023;-69
2022/10/31 01:43:02;;;;;;;;;;;10.80;99.90;;;;;;5076094;28;20396;-70
2022/10/31 01:45:28;;;;;;;;;;;10.80;99.90;;;;;;5071064;28;19927;-70
2022/10/31 01:47:53;;;;;;;;;;;10.70;99.90;;;;;;5075831;28;20347;-70
2022/10/31 01:50:28;;;;;;;;;;;10.70;99.90;;;;;;5073754;28;19924;-70
2022/10/31 01:52:54;;;;;;;;;;;10.60;99.90;;;;;;5072766;28;20002;-70
2022/10/31 01:55:49;;;;;;;;;;;10.50;99.90;;;;;;5074909;28;20333;-70
2022/10/31 01:58:18;;;;;;;;;;;10.50;99.90;;;;;;5082905;28;19924;-70
2022/10/31 02:00:46;;;;;;;;;;;10.30;99.90;;;;;;5062445;28;20279;-70
2022/10/31 02:03:11;;;;;;;;;;;10.30;99.90;;;;;;5099377;27;20389;-69
2022/10/31 02:05:38;;;;;;;;;;;10.40;99.90;;;;;;5073625;28;19924;-70
2022/10/31 02:08:03;;;;;;;;;;;10.30;99.90;;;;;;5057557;28;20266;-70
2022/10/31 02:10:30;;;;;;;;;;;10.30;99.90;;;;;;5058756;28;20625;-70
2022/10/31 02:12:57;;;;;;;;;;;10.40;99.90;;;;;;5071750;28;19920;-70
2022/10/31 02:15:23;;;;;;;;;;;10.30;99.90;;;;;;5068866;28;19947;-70
2022/10/31 02:17:48;;;;;;;;;;;10.40;99.90;;;;;;5063933;28;19976;-70
2022/10/31 02:20:19;;;;;;;;;;;10.30;99.90;;;;;;5072203;28;20363;-70
2022/10/31 02:22:47;;;;;;;;;;;10.30;99.90;;;;;;5066392;28;20441;-70
2022/10/31 02:25:32;;;;;;;;;;;10.30;99.90;;;;;;5067864;28;19942;-70
2022/10/31 02:28:18;;;;;;;;;;;10.30;99.90;;;;;;5062030;28;19928;-70
2022/10/31 02:31:02;;;;;;;;;;;10.30;99.90;;;;;;5073205;28;19920;-70
2022/10/31 02:33:31;;;;;;;;;;;10.30;99.90;;;;;;5072154;28;20429;-71
2022/10/31 02:36:03;;;;;;;;;;;10.30;99.90;;;;;;5068499;28;19924;-70
2022/10/31 02:38:43;;;;;;;;;;;10.20;99.90;;;;;;5069382;28;20298;-70
2022/10/31 02:41:23;;;;;;;;;;;10.10;99.90;;;;;;5068569;28;19939;-70
2022/10/31 02:43:55;;;;;;;;;;;10.00;99.90;;;;;;5076310;28;20011;-70
2022/10/31 02:46:39;;;;;;;;;;;9.90;99.90;;;;;;5072784;28;19939;-70
2022/10/31 02:49:07;;;;;;;;;;;9.90;99.90;;;;;;5064517;28;19928;-69
2022/10/31 02:51:33;;;;;;;;;;;9.90;99.90;;;;;;5096674;27;20355;-70
2022/10/31 02:53:59;;;;;;;;;;;9.80;99.90;;;;;;5065782;28;19984;-70
2022/10/31 02:56:24;;;;;;;;;;;9.80;99.90;;;;;;5051150;28;20013;-70
2022/10/31 02:59:08;;;;;;;;;;;9.80;99.90;;;;;;5070010;28;20272;-70
2022/10/31 03:01:36;;;;;;;;;;;9.80;99.90;;;;;;5071492;28;19920;-70
2022/10/31 03:04:18;;;;;;;;;;;9.80;99.90;;;;;;5077220;28;20366;-70
2022/10/31 03:06:47;;;;;;;;;;;9.80;99.90;;;;;;5068639;28;19928;-70
2022/10/31 03:09:19;;;;;;;;;;;9.80;99.90;;;;;;5079776;28;19953;-70
2022/10/31 03:12:06;;;;;;;;;;;9.80;99.90;;;;;;5068414;28;19920;-69
2022/10/31 03:14:40;;;;;;;;;;;9.80;99.90;;;;;;5074316;28;19924;-69
2022/10/31 03:17:08;;;;;;;;;;;9.70;99.90;;;;;;5053655;28;19928;-70
2022/10/31 03:19:35;;;;;;;;;;;9.70;99.90;;;;;;5060028;28;19924;-70
2022/10/31 03:22:04;;;;;;;;;;;9.60;99.90;;;;;;5069530;28;19920;-70
2022/10/31 03:24:35;;;;;;;;;;;9.60;99.90;;;;;;5069048;28;20381;-70
2022/10/31 03:27:01;;;;;;;;;;;9.60;99.90;;;;;;5062592;28;19929;-70
2022/10/31 03:29:29;;;;;;;;;;;9.40;99.90;;;;;;5069086;28;19928;-70
2022/10/31 03:31:57;;;;;;;;;;;9.40;99.90;;;;;;5069666;28;19967;-70
2022/10/31 03:34:22;;;;;;;;;;;9.40;99.90;;;;;;5066008;28;19927;-70
2022/10/31 03:36:53;;;;;;;;;;;9.30;99.90;;;;;;5063747;28;19928;-70
2022/10/31 03:39:20;;;;;;;;;;;9.20;99.90;;;;;;5097834;27;19924;-70
2022/10/31 03:42:18;;;;;;;;;;;9.10;99.90;;;;;;5064804;28;20290;-70
2022/10/31 03:44:48;;;;;;;;;;;8.90;99.90;;;;;;5049760;28;19924;-70
2022/10/31 03:47:14;;;;;;;;;;;8.70;99.90;;;;;;5067773;28;20014;-69
2022/10/31 03:49:39;;;;;;;;;;;8.70;99.90;;;;;;5073430;28;20447;-70
2022/10/31 03:52:07;;;;;;;;;;;8.70;99.90;;;;;;5051956;28;19934;-70
2022/10/31 03:54:40;;;;;;;;;;;8.70;99.90;;;;;;5073121;28;19920;-70
2022/10/31 03:57:29;;;;;;;;;;;8.70;99.90;;;;;;5053107;28;19950;-70
2022/10/31 04:00:00;;;;;;;;;;;8.70;99.90;;;;;;5069086;28;19938;-70
2022/10/31 04:02:28;;;;;;;;;;;8.80;99.90;;;;;;5068560;28;19920;-70
2022/10/31 04:04:54;;;;;;;;;;;8.70;99.90;;;;;;5096832;28;20390;-70
2022/10/31 04:07:22;;;;;;;;;;;8.70;99.90;;;;;;5071767;28;19927;-70
2022/10/31 04:09:49;;;;;;;;;;;8.80;99.90;;;;;;5057220;28;19926;-70
2022/10/31 04:12:16;;;;;;;;;;;8.80;99.90;;;;;;5051327;28;19967;-70
2022/10/31 04:14:44;;;;;;;;;;;8.70;99.90;;;;;;5072716;28;19928;-70
2022/10/31 04:17:12;;;;;;;;;;;8.70;99.90;;;;;;5070297;28;20370;-70
2022/10/31 04:19:37;;;;;;;;;;;8.50;99.90;;;;;;5077579;28;19924;-70
2022/10/31 04:22:03;;;;;;;;;;;8.30;99.90;;;;;;5063487;28;19920;-70
2022/10/31 04:24:28;;;;;;;;;;;8.10;99.90;;;;;;5071174;28;20465;-70
2022/10/31 04:26:54;;;;;;;;;;;7.90;99.90;;;;;;5068743;28;19925;-70
2022/10/31 04:29:19;;;;;;;;;;;7.80;99.90;;;;;;5073355;28;19927;-69
2022/10/31 04:31:45;;;;;;;;;;;7.90;99.90;;;;;;5063382;28;20015;-70
2022/10/31 04:34:10;;;;;;;;;;;7.90;99.90;;;;;;5077061;28;20405;-70
2022/10/31 04:36:36;;;;;;;;;;;7.90;99.90;;;;;;5072258;28;19943;-69
2022/10/31 04:39:01;;;;;;;;;;;7.90;99.90;;;;;;5070684;28;19933;-70
2022/10/31 04:41:27;;;;;;;;;;;8.00;99.90;;;;;;5070489;28;20268;-70
2022/10/31 04:43:52;;;;;;;;;;;8.00;99.90;;;;;;5070785;28;19942;-70
2022/10/31 04:46:18;;;;;;;;;;;8.10;99.90;;;;;;5050837;28;19929;-70
2022/10/31 04:48:43;;;;;;;;;;;8.20;99.90;;;;;;5073196;28;20042;-70
2022/10/31 04:51:09;;;;;;;;;;;8.30;99.90;;;;;;5064214;28;20659;-70
2022/10/31 04:53:34;;;;;;;;;;;8.30;99.90;;;;;;5068597;28;19925;-70
2022/10/31 04:56:00;;;;;;;;;;;8.40;99.90;;;;;;5071866;28;20246;-70
2022/10/31 04:58:26;;;;;;;;;;;8.40;99.90;;;;;;5065874;28;19990;-70
2022/10/31 05:00:55;;;;;;;;;;;8.40;99.90;;;;;;5102461;28;19920;-70
2022/10/31 05:03:21;;;;;;;;;;;8.50;99.90;;;;;;5070635;28;20081;-70
2022/10/31 05:05:46;;;;;;;;;;;8.50;99.90;;;;;;5072606;28;20394;-70
2022/10/31 05:08:12;;;;;;;;;;;8.40;99.90;;;;;;5078722;28;19927;-70
2022/10/31 05:10:37;;;;;;;;;;;8.20;99.90;;;;;;5066301;28;19927;-70
2022/10/31 05:13:03;;;;;;;;;;;8.20;99.90;;;;;;5061227;28;20355;-70
2022/10/31 05:15:29;;;;;;;;;;;8.20;99.90;;;;;;5067504;28;19931;-70
2022/10/31 05:17:54;;;;;;;;;;;8.30;99.90;;;;;;5066788;28;19924;-70
2022/10/31 05:20:21;;;;;;;;;;;8.30;99.90;;;;;;5077428;28;19927;-70
2022/10/31 05:22:48;;;;;;;;;;;8.30;99.90;;;;;;5072250;28;19998;-70
2022/10/31 05:25:14;;;;;;;;;;;8.40;99.90;;;;;;5077432;28;19927;-70
2022/10/31 05:27:47;;;;;;;;;;;8.40;99.90;;;;;;5059204;28;19929;-70
2022/10/31 05:30:15;;;;;;;;;;;8.50;99.90;;;;;;5065032;28;19921;-70
2022/10/31 05:32:42;;;;;;;;;;;8.40;99.90;;;;;;5071108;28;19981;-70
2022/10/31 05:35:08;;;;;;;;;;;8.40;99.90;;;;;;5053383;28;20185;-70
2022/10/31 05:37:34;;;;;;;;;;;8.40;99.90;;;;;;5075212;28;19927;-70
2022/10/31 05:39:59;;;;;;;;;;;8.30;99.90;;;;;;5090171;28;19921;-69
2022/10/31 05:42:25;;;;;;;;;;;8.30;99.90;;;;;;5075533;28;19927;-70
2022/10/31 05:44:50;;;;;;;;;;;8.30;99.90;;;;;;5070326;28;20019;-70
2022/10/31 05:47:16;;;;;;;;;;;8.20;99.90;;;;;;5079063;28;20426;-70
2022/10/31 05:49:41;;;;;;;;;;;8.20;99.90;;;;;;5068761;28;19967;-70
2022/10/31 05:52:07;;;;;;;;;;;8.20;99.90;;;;;;5067484;28;19929;-70
2022/10/31 05:54:32;;;;;;;;;;;8.20;99.90;;;;;;5068085;28;20306;-71
2022/10/31 05:56:58;;;;;;;;;;;8.20;99.90;;;;;;5066944;28;20002;-71
2022/10/31 05:59:23;;;;;;;;;;;8.20;99.90;;;;;;5075123;28;19979;-71
2022/10/31 06:01:49;;;;;;;;;;;8.20;99.90;;;;;;5077614;28;20390;-71
2022/10/31 06:04:14;;;;;;;;;;;8.10;99.90;;;;;;5068747;28;19931;-71
2022/10/31 06:06:40;;;;;;;;;;;8.10;99.90;;;;;;5069868;28;20264;-70
2022/10/31 06:09:05;;;;;;;;;;;8.10;99.90;;;;;;5069921;28;19921;-72
2022/10/31 06:11:30;;;;;;;;;;;8.00;99.90;;;;;;5069655;28;20394;-71
2022/10/31 06:13:56;;;;;;;;;;;8.10;99.90;;;;;;5070731;28;20074;-70
2022/10/31 06:16:21;;;;;;;;;;;8.00;99.90;;;;;;5074090;28;19928;-71
2022/10/31 06:18:47;;;;;;;;;;;8.10;99.90;;;;;;5087366;28;20062;-71
2022/10/31 06:21:12;;;;;;;;;;;8.00;99.90;;;;;;5066367;28;19926;-71
2022/10/31 06:23:38;;;;;;;;;;;8.00;99.90;;;;;;5063237;28;20496;-71
2022/10/31 06:26:03;;;;;;;;;;;8.00;99.90;;;;;;5069803;28;19952;-71
2022/10/31 06:28:29;;;;;;;;;;;8.00;99.90;;;;;;5068628;28;19951;-71
2022/10/31 06:30:54;;;;;;;;;;;8.00;99.90;;;;;;5077599;28;20363;-71
2022/10/31 06:33:20;;;;;;;;;;;8.00;99.90;;;;;;5073376;28;20034;-71
2022/10/31 06:35:46;;;;;;;;;;;8.00;99.90;;;;;;5080300;28;19942;-71
2022/10/31 06:38:12;;;;;;;;;;;8.00;99.90;;;;;;5054408;28;19924;-71
2022/10/31 06:40:37;;;;;;;;;;;8.00;99.90;;;;;;5073227;28;19924;-71
2022/10/31 06:43:03;;;;;;;;;;;8.00;99.90;;;;;;5061518;28;20011;-71
2022/10/31 06:45:28;;;;;;;;;;;8.00;99.90;;;;;;5072674;28;19929;-71
2022/10/31 06:47:54;;;;;;;;;;;8.00;99.90;;;;;;5067691;28;19935;-71
2022/10/31 06:50:20;;;;;;;;;;;7.90;99.90;;;;;;5077058;28;19972;-70
2022/10/31 06:52:53;;;;;;;;;;;7.90;99.90;;;;;;5071779;28;19951;-70
2022/10/31 06:55:20;;;;;;;;;;;7.90;99.90;;;;;;5071445;28;19925;-71
2022/10/31 06:57:49;;;;;;;;;;;7.90;99.90;;;;;;5071565;28;19939;-70
2022/10/31 07:00:15;;;;;;;;;;;7.90;99.90;;;;;;5076710;28;19924;-71
2022/10/31 07:02:40;;;;;;;;;;;7.90;99.90;;;;;;5066040;28;20374;-71
2022/10/31 07:05:06;;;;;;;;;;;7.90;99.90;;;;;;5068735;28;19944;-71
2022/10/31 07:07:31;;;;;;;;;;;7.90;99.90;;;;;;5050830;28;19929;-71
2022/10/31 07:09:57;;;;;;;;;;;7.90;99.90;;;;;;5065349;28;19920;-71
2022/10/31 07:12:22;;;;;;;;;;;7.90;99.90;;;;;;5054452;28;19931;-71
2022/10/31 07:14:48;;;;;;;;;;;7.90;99.90;;;;;;5069160;28;20392;-71
2022/10/31 07:17:13;;;;;;;;;;;7.90;99.90;;;;;;5066985;28;19925;-71
2022/10/31 07:19:39;;;;;;;;;;;7.90;99.90;;;;;;5051680;28;19932;-71
2022/10/31 07:22:04;;;;;;;;;;;8.00;99.90;;;;;;5058983;28;19947;-71
2022/10/31 07:24:30;;;;;;;;;;;7.90;99.90;;;;;;5050210;28;19928;-71
2022/10/31 07:26:55;;;;;;;;;;;7.90;99.90;;;;;;5079227;28;20504;-71
2022/10/31 07:29:21;;;;;;;;;;;7.90;99.90;;;;;;5069128;28;20383;-71
2022/10/31 07:31:46;;;;;;;;;;;7.90;99.90;;;;;;5063587;28;20919;-71
2022/10/31 07:34:12;;;;;;;;;;;7.90;99.90;;;;;;5083477;28;19971;-71
2022/10/31 07:36:37;;;;;;;;;;;7.90;99.90;;;;;;5072341;28;19994;-71
2022/10/31 07:39:03;;;;;;;;;;;7.90;99.90;;;;;;5081716;28;20085;-71
2022/10/31 07:41:28;;;;;;;;;;;8.00;99.90;;;;;;5069275;28;20030;-71
2022/10/31 07:43:54;;;;;;;;;;;8.10;99.90;;;;;;5067396;28;19920;-71
2022/10/31 07:46:21;;;;;;;;;;;8.10;99.90;;;;;;5076850;28;20295;-71
2022/10/31 07:48:46;;;;;;;;;;;8.20;99.90;;;;;;5049734;28;20208;-71
2022/10/31 07:51:12;;;;;;;;;;;8.30;99.90;;;;;;5067652;28;19924;-71
2022/10/31 07:53:37;;;;;;;;;;;8.30;99.90;;;;;;5056239;28;20015;-71
2022/10/31 07:56:03;;;;;;;;;;;8.40;99.90;;;;;;5069667;28;19943;-71
2022/10/31 07:58:28;;;;;;;;;;;8.40;99.90;;;;;;5060055;28;19939;-71
2022/10/31 08:00:54;;;;;;;;;;;8.60;99.90;;;;;;5067740;28;19921;-71
2022/10/31 08:03:19;;;;;;;;;;;8.50;99.90;;;;;;5067148;28;19932;-71
2022/10/31 08:05:45;;;;;;;;;;;8.70;99.90;;;;;;5069248;28;20401;-71
2022/10/31 08:08:11;;;;;;;;;;;8.70;99.90;;;;;;5068532;28;19928;-71
2022/10/31 08:10:37;;;;;;;;;;;8.90;99.90;;;;;;5069627;28;19920;-71
2022/10/31 08:13:07;;;;;;;;;;;9.00;99.90;;;;;;5056613;28;19986;-71
2022/10/31 08:15:36;;;;;;;;;;;9.10;99.90;;;;;;5067398;28;19928;-71
2022/10/31 08:18:02;;;;;;;;;;;9.20;99.90;;;;;;5067170;28;19928;-71
2022/10/31 08:20:28;;;;;;;;;;;9.30;99.90;;;;;;5069634;28;20386;-71
2022/10/31 08:22:57;;;;;;;;;;;9.40;99.90;;;;;;5065163;28;19921;-71
2022/10/31 08:25:23;;;;;;;;;;;9.40;99.90;;;;;;5094041;28;20041;-71
2022/10/31 08:27:52;;;;;;;;;;;9.60;99.90;;;;;;5059695;28;20023;-71
2022/10/31 08:30:19;;;;;;;;;;;9.70;99.90;;;;;;5064086;28;20029;-71
2022/10/31 08:32:44;;;;;;;;;;;9.90;99.90;;;;;;5064541;28;20378;-71
2022/10/31 08:35:10;;;;;;;;;;;10.00;99.90;;;;;;5067456;28;19921;-71
2022/10/31 08:37:35;;;;;;;;;;;10.00;99.90;;;;;;5060627;28;21237;-71
2022/10/31 08:40:01;;;;;;;;;;;10.10;99.90;;;;;;5089448;28;19933;-71
2022/10/31 08:42:26;;;;;;;;;;;10.20;99.90;;;;;;5048845;28;20003;-71
2022/10/31 08:44:52;;;;;;;;;;;10.30;99.90;;;;;;5098602;28;19952;-71
2022/10/31 08:47:17;;;;;;;;;;;10.30;99.90;;;;;;5066071;28;19975;-71
2022/10/31 08:49:43;;;;;;;;;;;10.30;99.90;;;;;;5067777;28;19928;-71
2022/10/31 08:52:08;;;;;;;;;;;10.40;99.90;;;;;;5060658;28;19982;-71
2022/10/31 08:54:34;;;;;;;;;;;10.40;99.90;;;;;;5059013;28;19967;-71
2022/10/31 08:56:59;;;;;;;;;;;10.40;99.90;;;;;;5078953;28;20431;-71
2022/10/31 08:59:25;;;;;;;;;;;10.40;99.90;;;;;;5057793;28;19947;-71
2022/10/31 09:01:50;;;;;;;;;;;10.50;99.90;;;;;;5108128;27;19924;-71
2022/10/31 09:04:16;;;;;;;;;;;10.60;99.90;;;;;;5073057;28;19930;-71
2022/10/31 09:06:41;;;;;;;;;;;10.70;99.90;;;;;;5085722;28;19926;-71
2022/10/31 09:09:07;;;;;;;;;;;10.80;99.90;;;;;;5073989;28;19927;-71
2022/10/31 09:11:32;;;;;;;;;;;10.90;99.90;;;;;;5076108;28;20362;-71
2022/10/31 09:13:58;;;;;;;;;;;10.90;99.90;;;;;;5076051;28;19967;-71
2022/10/31 09:16:23;;;;;;;;;;;11.10;99.90;;;;;;5078728;28;19927;-71
2022/10/31 09:18:49;;;;;;;;;;;11.20;99.90;;;;;;5062402;28;20481;-71
2022/10/31 09:21:14;;;;;;;;;;;11.20;99.90;;;;;;5080157;28;19928;-71
2022/10/31 09:23:40;;;;;;;;;;;11.30;99.90;;;;;;5076166;28;19934;-71
2022/10/31 09:26:06;;;;;;;;;;;11.30;99.90;;;;;;5069528;28;19959;-71
2022/10/31 09:28:32;;;;;;;;;;;11.40;99.90;;;;;;5057986;28;19924;-71
2022/10/31 09:30:57;;;;;;;;;;;11.40;99.90;;;;;;5078178;28;19979;-71
2022/10/31 09:33:23;;;;;;;;;;;11.50;99.90;;;;;;5070178;28;20029;-71
2022/10/31 09:35:48;;;;;;;;;;;11.60;99.90;;;;;;5075571;28;19966;-71
2022/10/31 09:38:15;;;;;;;;;;;11.60;99.90;;;;;;5072346;28;19927;-71
2022/10/31 09:40:49;;;;;;;;;;;11.70;99.90;;;;;;5078731;28;20374;-71
2022/10/31 09:43:18;;;;;;;;;;;11.90;99.90;;;;;;5103129;27;20015;-71
2022/10/31 09:45:49;;;;;;;;;;;12.00;99.90;;;;;;5076764;28;19924;-71
2022/10/31 09:48:18;;;;;;;;;;;12.10;99.90;;;;;;5107587;27;20363;-70
2022/10/31 09:50:47;;;;;;;;;;;12.10;99.90;;;;;;5075941;28;19920;-71
2022/10/31 09:53:15;;;;;;;;;;;12.00;99.90;;;;;;5069705;28;19929;-71
2022/10/31 09:55:43;;;;;;;;;;;12.20;99.90;;;;;;5079830;28;19920;-71
2022/10/31 09:58:14;;;;;;;;;;;12.10;99.90;;;;;;5077293;28;19924;-70
2022/10/31 10:00:39;;;;;;;;;;;12.10;99.90;;;;;;5067320;28;20379;-70
2022/10/31 10:03:18;;;;;;;;;;;12.10;99.90;;;;;;5068629;28;19956;-70
2022/10/31 10:06:03;;;;;;;;;;;12.10;99.90;;;;;;5078820;28;20282;-71
2022/10/31 10:08:30;;;;;;;;;;;12.20;99.90;;;;;;5075856;28;20375;-70
2022/10/31 10:10:56;;;;;;;;;;;12.20;99.90;;;;;;5111652;27;19946;-70
2022/10/31 10:13:27;;;;;;;;;;;12.30;99.90;;;;;;5075323;28;19923;-70
2022/10/31 10:15:56;;;;;;;;;;;12.40;99.90;;;;;;5073307;28;19920;-71
2022/10/31 10:18:40;;;;;;;;;;;12.40;99.90;;;;;;5073408;28;19940;-71
2022/10/31 10:21:13;;;;;;;;;;;12.60;99.90;;;;;;5067889;28;19920;-70
2022/10/31 10:23:58;;;;;;;;;;;12.70;99.90;;;;;;5072852;28;19927;-70
2022/10/31 10:26:34;;;;;;;;;;;12.90;99.90;;;;;;5073549;28;20010;-71
2022/10/31 10:29:12;;;;;;;;;;;13.00;99.90;;;;;;5068128;28;20016;-71
2022/10/31 10:31:40;;;;;;;;;;;13.10;99.90;;;;;;5081830;28;19920;-70
2022/10/31 10:34:05;;;;;;;;;;;13.30;99.90;;;;;;5076849;28;20184;-71
2022/10/31 10:37:03;;;;;;;;;;;13.40;99.90;;;;;;5084144;28;19953;-71
2022/10/31 10:39:38;;;;;;;;;;;13.50;99.90;;;;;;5046548;28;19964;-71
2022/10/31 10:47:45;;;;;;;;;;;13.90;99.90;;;;;;5072777;28;19951;-70
2022/10/31 10:50:15;;;;;;;;;;;14.00;99.90;;;;;;5070892;28;20298;-71
2022/10/31 10:52:47;;;;;;;;;;;14.10;99.90;;;;;;5071289;28;19928;-70
2022/10/31 10:55:12;;;;;;;;;;;14.20;99.90;;;;;;5067757;28;19963;-70
2022/10/31 10:57:38;;;;;;;;;;;14.30;99.90;;;;;;5080610;28;19967;-70
2022/10/31 11:00:30;;;;;;;;;;;14.40;99.90;;;;;;5076576;28;19943;-70
2022/10/31 11:02:56;;;;;;;;;;;14.50;99.90;;;;;;5067831;28;19973;-70
2022/10/31 11:05:30;;;;;;;;;;;14.50;99.90;;;;;;5079695;28;19928;-70
2022/10/31 11:07:55;;;;;;;;;;;14.60;99.90;;;;;;5074214;28;19934;-71
2022/10/31 11:10:21;;;;;;;;;;;14.70;99.90;;;;;;5067724;28;19920;-70
2022/10/31 11:13:10;;;;;;;;;;;14.80;99.90;;;;;;5072511;28;19924;-70
2022/10/31 11:15:37;;;;;;;;;;;14.90;99.90;;;;;;5065925;28;19924;-70
2022/10/31 11:18:04;;;;;;;;;;;15.00;99.90;;;;;;5073913;28;19954;-71
2022/10/31 11:20:35;;;;;;;;;;;15.00;99.90;;;;;;5074092;28;19921;-71
2022/10/31 11:23:01;;;;;;;;;;;14.90;99.90;;;;;;5079179;28;19916;-70
2022/10/31 11:25:27;;;;;;;;;;;15.00;99.90;;;;;;5098427;28;19935;-70
2022/10/31 11:28:08;;;;;;;;;;;15.00;99.90;;;;;;5056037;28;19920;-70
2022/10/31 11:30:45;;;;;;;;;;;15.10;99.90;;;;;;5072553;28;19931;-70
2022/10/31 11:33:17;;;;;;;;;;;15.20;99.90;;;;;;5085720;27;21877;-70
2022/10/31 11:35:43;;;;;;;;;;;15.20;99.90;;;;;;5071829;28;19920;-70
2022/10/31 11:38:13;;;;;;;;;;;15.20;99.90;;;;;;5067441;28;20276;-71
2022/10/31 11:40:38;;;;;;;;;;;15.30;99.90;;;;;;5073584;28;19928;-70
2022/10/31 11:43:04;;;;;;;;;;;15.20;99.90;;;;;;5063549;28;20377;-71
2022/10/31 11:45:31;;;;;;;;;;;15.20;99.90;;;;;;5067833;28;19921;-71
2022/10/31 11:47:57;;;;;;;;;;;15.30;99.90;;;;;;5078192;28;20030;-70
2022/10/31 11:50:25;;;;;;;;;;;15.30;99.90;;;;;;5081565;28;19963;-70
2022/10/31 11:52:55;;;;;;;;;;;15.40;99.90;;;;;;5080932;28;20375;-70
2022/10/31 11:55:20;;;;;;;;;;;15.50;99.90;;;;;;5097992;27;20579;-71
2022/10/31 11:57:47;;;;;;;;;;;15.50;99.90;;;;;;5063472;28;19928;-70
2022/10/31 12:00:23;;;;;;;;;;;15.50;99.90;;;;;;5107949;27;19951;-71
2022/10/31 12:02:49;;;;;;;;;;;15.50;99.90;;;;;;5106103;27;19968;-70
2022/10/31 12:05:22;;;;;;;;;;;15.50;99.90;;;;;;5078011;28;20364;-70
2022/10/31 12:07:48;;;;;;;;;;;15.50;99.90;;;;;;5069197;28;19924;-70
2022/10/31 12:10:14;;;;;;;;;;;15.50;99.90;;;;;;5074322;28;20367;-70
2022/10/31 12:12:55;;;;;;;;;;;15.60;99.90;;;;;;5070847;28;19924;-71
2022/10/31 12:15:34;;;;;;;;;;;15.70;99.90;;;;;;5106091;27;20430;-70
2022/10/31 12:18:18;;;;;;;;;;;15.70;99.90;;;;;;5071535;28;20282;-70
2022/10/31 12:21:02;;;;;;;;;;;15.70;99.90;;;;;;5080694;28;19978;-70
2022/10/31 12:23:43;;;;;;;;;;;15.70;99.90;;;;;;5107398;28;20233;-70
2022/10/31 12:26:18;;;;;;;;;;;15.80;99.90;;;;;;5074337;28;19920;-71
2022/10/31 12:28:44;;;;;;;;;;;15.80;99.90;;;;;;5087126;28;19966;-71
2022/10/31 12:31:18;;;;;;;;;;;15.80;99.90;;;;;;5072380;28;19924;-70
2022/10/31 12:34:13;;;;;;;;;;;15.80;99.90;;;;;;5068251;28;20353;-70
2022/10/31 12:36:54;;;;;;;;;;;15.70;99.90;;;;;;5074103;28;20067;-70
2022/10/31 12:39:24;;;;;;;;;;;15.60;99.90;;;;;;5054826;28;20067;-71
2022/10/31 12:42:05;;;;;;;;;;;15.60;99.90;;;;;;5069034;28;19967;-71
2022/10/31 12:44:50;;;;;;;;;;;15.60;99.90;;;;;;5070107;28;19924;-71
2022/10/31 12:47:22;;;;;;;;;;;15.60;99.90;;;;;;5066262;28;19920;-71
2022/10/31 12:49:54;;;;;;;;;;;15.60;99.90;;;;;;5097602;28;19929;-71
2022/10/31 12:52:37;;;;;;;;;;;15.70;99.90;;;;;;5068828;28;19926;-71
2022/10/31 12:55:16;;;;;;;;;;;15.70;99.90;;;;;;5112466;28;20363;-70
2022/10/31 12:57:49;;;;;;;;;;;15.80;99.90;;;;;;5072940;28;19924;-70
2022/10/31 13:00:15;;;;;;;;;;;15.80;99.90;;;;;;5100141;28;20414;-71
2022/10/31 13:02:50;;;;;;;;;;;15.90;99.90;;;;;;5061257;28;19971;-70
2022/10/31 13:05:22;;;;;;;;;;;16.00;99.90;;;;;;5069233;28;19925;-70
2022/10/31 13:08:05;;;;;;;;;;;16.00;99.90;;;;;;5067046;28;19925;-71
2022/10/31 13:10:39;;;;;;;;;;;16.10;99.90;;;;;;5071061;28;19924;-70
2022/10/31 13:13:18;;;;;;;;;;;16.10;99.90;;;;;;5058558;28;19924;-70
2022/10/31 13:15:51;;;;;;;;;;;16.00;99.90;;;;;;5074741;28;20003;-70
2022/10/31 13:18:25;;;;;;;;;;;16.00;99.90;;;;;;5069261;28;19928;-70
2022/10/31 13:20:51;;;;;;;;;;;15.90;99.90;;;;;;5053694;28;20350;-70
2022/10/31 13:23:22;;;;;;;;;;;15.80;99.90;;;;;;5102613;28;19931;-70
2022/10/31 13:25:50;;;;;;;;;;;15.80;99.90;;;;;;5095619;28;20260;-70
2022/10/31 13:28:25;;;;;;;;;;;15.70;99.90;;;;;;5060970;28;20393;-70
2022/10/31 13:30:51;;;;;;;;;;;15.80;99.90;;;;;;5075724;28;20007;-70
2022/10/31 13:33:22;;;;;;;;;;;15.80;99.90;;;;;;5074411;28;20383;-70
2022/10/31 13:35:54;;;;;;;;;;;15.70;99.90;;;;;;5064088;28;19928;-70
2022/10/31 13:38:30;;;;;;;;;;;15.60;99.90;;;;;;5069434;28;19924;-70
2022/10/31 13:41:01;;;;;;;;;;;15.60;99.90;;;;;;5074152;28;19940;-70
2022/10/31 13:43:46;;;;;;;;;;;15.60;99.90;;;;;;5070754;28;20446;-70
2022/10/31 13:46:25;;;;;;;;;;;15.60;99.90;;;;;;5078099;28;20010;-70
2022/10/31 13:48:50;;;;;;;;;;;15.50;99.90;;;;;;5077841;28;19925;-70
2022/10/31 13:51:24;;;;;;;;;;;15.40;99.90;;;;;;5062192;28;19935;-69
2022/10/31 13:53:55;;;;;;;;;;;15.40;99.90;;;;;;5072794;28;19925;-69
2022/10/31 13:56:22;;;;;;;;;;;15.40;99.90;;;;;;5063804;28;20210;-70
2022/10/31 13:58:57;;;;;;;;;;;15.40;99.90;;;;;;5065113;28;19932;-70
2022/10/31 14:01:22;;;;;;;;;;;15.40;99.90;;;;;;5079021;28;20007;-69
2022/10/31 14:04:06;;;;;;;;;;;15.40;99.90;;;;;;5072229;28;20007;-70
2022/10/31 14:06:57;;;;;;;;;;;15.50;99.90;;;;;;5071078;28;19958;-70
2022/10/31 14:09:28;;;;;;;;;;;15.50;99.90;;;;;;5061222;28;20368;-70
2022/10/31 14:11:55;;;;;;;;;;;15.40;99.90;;;;;;5048389;28;19966;-70
2022/10/31 14:14:22;;;;;;;;;;;15.40;99.90;;;;;;5064557;28;19921;-70
2022/10/31 14:16:53;;;;;;;;;;;15.40;99.90;;;;;;5070802;28;19975;-70
2022/10/31 14:19:19;;;;;;;;;;;15.40;99.90;;;;;;5077988;28;20341;-70
2022/10/31 14:21:46;;;;;;;;;;;15.40;99.90;;;;;;5062265;28;19921;-70
2022/10/31 14:24:24;;;;;;;;;;;15.40;99.90;;;;;;5070256;28;19928;-69
2022/10/31 14:26:57;;;;;;;;;;;15.40;99.90;;;;;;5070588;28;19921;-70
2022/10/31 14:29:24;;;;;;;;;;;15.30;99.90;;;;;;5056106;28;19921;-70
2022/10/31 14:31:53;;;;;;;;;;;15.30;99.90;;;;;;5096761;28;19924;-70
2022/10/31 14:34:22;;;;;;;;;;;15.30;99.90;;;;;;5101095;28;19924;-70
2022/10/31 14:37:06;;;;;;;;;;;15.30;99.90;;;;;;5064748;28;19925;-70